Time;durP1;ratioP1;P1;durP2;ratioP2;P2;SDS_P1;SDS_P2;PMS_P1;PMS_P2;Temp;Humidity;BMP_temperature;BMP_pressure;BME280_temperature;BME280_humidity;BME280_pressure;Samples;Min_cycle;Max_cycle;Signal;HPM_P1;HPM_P2
2022/06/01 00:01:29;;;;;;;5.68;3.00;;;12.60;99.90;;;;;;5074647;28;20469;-78
2022/06/01 00:03:54;;;;;;;4.82;3.15;;;12.50;99.90;;;;;;5073705;28;20077;-78
2022/06/01 00:06:20;;;;;;;6.68;3.45;;;12.50;99.90;;;;;;5072681;28;20515;-78
2022/06/01 00:08:46;;;;;;;4.43;3.60;;;12.50;99.90;;;;;;5057926;28;20052;-78
2022/06/01 00:11:11;;;;;;;4.90;3.42;;;12.50;99.90;;;;;;5071825;28;20547;-79
2022/06/01 00:13:37;;;;;;;5.45;4.03;;;12.50;99.90;;;;;;5070760;28;20365;-78
2022/06/01 00:16:03;;;;;;;6.00;3.90;;;12.50;99.90;;;;;;5067126;28;20028;-79
2022/06/01 00:18:29;;;;;;;6.10;4.60;;;12.50;99.90;;;;;;5060680;28;20393;-78
2022/06/01 00:20:55;;;;;;;6.30;4.50;;;12.50;99.90;;;;;;5052783;28;20035;-78
2022/06/01 00:23:21;;;;;;;6.18;4.63;;;12.60;99.90;;;;;;5071038;28;20028;-78
2022/06/01 00:25:47;;;;;;;9.65;5.22;;;12.60;99.90;;;;;;5052403;28;20502;-78
2022/06/01 00:28:13;;;;;;;8.63;5.28;;;12.60;99.90;;;;;;5071083;28;20033;-78
2022/06/01 00:30:39;;;;;;;6.88;5.70;;;12.60;99.90;;;;;;5070592;28;20091;-78
2022/06/01 00:33:05;;;;;;;9.57;6.47;;;12.60;99.90;;;;;;5070521;28;20074;-78
2022/06/01 00:35:31;;;;;;;10.43;6.45;;;12.60;99.90;;;;;;5069938;28;20028;-78
2022/06/01 00:37:56;;;;;;;8.98;6.50;;;12.60;99.90;;;;;;5052111;28;20123;-78
2022/06/01 00:40:26;;;;;;;13.88;7.35;;;12.60;99.90;;;;;;5070047;28;20095;-78
2022/06/01 00:42:57;;;;;;;7.55;5.70;;;12.60;99.90;;;;;;5070284;28;20043;-78
2022/06/01 00:45:25;;;;;;;7.32;5.78;;;12.60;99.90;;;;;;5069738;28;20043;-78
2022/06/01 00:47:52;;;;;;;9.00;5.53;;;12.50;99.90;;;;;;5070267;28;20556;-78
2022/06/01 00:50:19;;;;;;;8.02;5.70;;;12.50;99.90;;;;;;5061491;28;20029;-78
2022/06/01 00:53:04;;;;;;;6.82;5.20;;;12.50;99.90;;;;;;5070214;28;20020;-78
2022/06/01 00:55:34;;;;;;;6.32;5.15;;;12.50;99.90;;;;;;5068314;28;20086;-78
2022/06/01 00:58:22;;;;;;;6.75;5.10;;;12.40;99.90;;;;;;5063567;28;20025;-78
2022/06/01 01:00:50;;;;;;;6.55;5.25;;;12.40;99.90;;;;;;5062469;28;20131;-78
2022/06/01 01:03:17;;;;;;;10.80;5.35;;;12.40;99.90;;;;;;5052137;28;20032;-78
2022/06/01 01:05:51;;;;;;;7.28;5.95;;;12.40;99.90;;;;;;5069230;28;20082;-77
2022/06/01 01:08:17;;;;;;;10.23;6.83;;;12.40;99.90;;;;;;5070292;28;20071;-78
2022/06/01 01:10:43;;;;;;;10.95;7.13;;;12.40;99.90;;;;;;5069830;28;20271;-78
2022/06/01 01:13:14;;;;;;;12.18;7.70;;;12.40;99.90;;;;;;5069492;28;20024;-79
2022/06/01 01:15:40;;;;;;;10.75;7.95;;;12.40;99.90;;;;;;5068873;28;20017;-78
2022/06/01 01:18:19;;;;;;;10.35;8.25;;;12.50;99.90;;;;;;5067396;28;20404;-78
2022/06/01 01:20:56;;;;;;;9.77;8.63;;;12.50;99.90;;;;;;5069337;28;20035;-78
2022/06/01 01:23:31;;;;;;;11.45;8.38;;;12.50;99.90;;;;;;5058767;28;20036;-78
2022/06/01 01:25:57;;;;;;;13.27;9.10;;;12.40;99.90;;;;;;5066971;28;20028;-78
2022/06/01 01:28:23;;;;;;;14.02;8.93;;;12.40;99.90;;;;;;5073805;28;20021;-78
2022/06/01 01:30:52;;;;;;;11.75;8.80;;;12.40;99.90;;;;;;5039586;28;20029;-78
2022/06/01 01:33:21;;;;;;;12.35;9.23;;;12.40;99.90;;;;;;5067787;28;20021;-78
2022/06/01 01:35:53;;;;;;;14.35;9.63;;;12.30;99.90;;;;;;5069075;28;20032;-78
2022/06/01 01:38:42;;;;;;;12.18;9.05;;;12.40;99.90;;;;;;5073451;28;20040;-78
2022/06/01 01:41:30;;;;;;;15.27;8.60;;;12.40;99.90;;;;;;5055428;28;20427;-78
2022/06/01 01:44:17;;;;;;;11.55;9.02;;;12.30;99.90;;;;;;5073673;28;20071;-78
2022/06/01 01:46:47;;;;;;;10.93;8.43;;;12.30;99.90;;;;;;5072885;28;20021;-78
2022/06/01 01:49:14;;;;;;;13.73;8.63;;;12.30;99.90;;;;;;5063002;28;20048;-78
2022/06/01 01:51:39;;;;;;;10.77;8.30;;;12.30;99.90;;;;;;5070269;28;20429;-78
2022/06/01 01:54:21;;;;;;;12.05;8.85;;;12.30;99.90;;;;;;5073422;28;20108;-78
2022/06/01 01:57:11;;;;;;;10.60;7.80;;;12.30;99.90;;;;;;5051944;28;20033;-77
2022/06/01 01:59:53;;;;;;;11.00;8.13;;;12.30;99.90;;;;;;5073485;28;20043;-78
2022/06/01 02:02:30;;;;;;;11.07;7.60;;;12.30;99.90;;;;;;5072688;28;20391;-78
2022/06/01 02:08:35;;;;;;;12.35;9.07;;;12.20;99.90;;;;;;5068682;28;20436;-78
2022/06/01 02:14:01;;;;;;;;;;;12.10;99.90;;;;;;5073352;28;20038;-79
2022/06/01 02:16:31;;;;;;;14.73;9.65;;;12.00;99.90;;;;;;5066075;28;20291;-79
2022/06/01 02:19:00;;;;;;;7.28;4.10;;;11.90;99.90;;;;;;5071232;28;20051;-79
2022/06/01 02:21:27;;;;;;;3.17;2.45;;;11.90;99.90;;;;;;5072457;28;20021;-79
2022/06/01 02:23:55;;;;;;;3.60;2.10;;;11.70;99.90;;;;;;5073126;28;20059;-78
2022/06/01 02:26:21;;;;;;;3.38;1.33;;;11.60;99.90;;;;;;5072757;28;20388;-79
2022/06/01 02:28:51;;;;;;;3.05;1.30;;;11.50;99.90;;;;;;5054368;28;20039;-79
2022/06/01 02:31:17;;;;;;;5.28;1.40;;;11.40;99.90;;;;;;5072207;28;20032;-78
2022/06/01 02:33:46;;;;;;;1.55;1.13;;;11.40;99.90;;;;;;5072384;28;20024;-78
2022/06/01 02:36:15;;;;;;;1.83;1.25;;;11.30;99.90;;;;;;5071954;28;20021;-78
2022/06/01 02:38:45;;;;;;;1.45;1.27;;;11.30;99.90;;;;;;5070435;28;20233;-78
2022/06/01 02:43:56;;;;;;;2.22;1.52;;;11.30;99.90;;;;;;5073146;28;20093;-78
2022/06/01 02:46:23;;;;;;;2.10;1.42;;;11.40;99.90;;;;;;5071961;28;20392;-78
2022/06/01 02:48:50;;;;;;;3.88;1.73;;;11.40;99.90;;;;;;5052173;28;20024;-78
2022/06/01 02:51:18;;;;;;;3.72;2.17;;;11.40;99.90;;;;;;5072329;28;20082;-78
2022/06/01 02:53:44;;;;;;;1.80;1.70;;;11.40;99.90;;;;;;5061314;28;20020;-78
2022/06/01 02:56:11;;;;;;;2.63;1.90;;;11.40;99.90;;;;;;5067282;28;20455;-77
2022/06/01 02:58:37;;;;;;;2.55;1.90;;;11.40;99.90;;;;;;5065124;28;20483;-78
2022/06/01 03:01:03;;;;;;;3.03;2.03;;;11.30;99.90;;;;;;5071228;28;20305;-78
2022/06/01 03:03:30;;;;;;;3.38;2.05;;;11.30;99.90;;;;;;5071299;28;20028;-78
2022/06/01 03:05:56;;;;;;;3.05;2.08;;;11.20;99.90;;;;;;5070652;28;20016;-78
2022/06/01 03:08:22;;;;;;;4.88;2.03;;;11.20;99.90;;;;;;5071355;28;20037;-78
2022/06/01 03:10:48;;;;;;;2.47;2.28;;;11.20;99.90;;;;;;5071703;28;20115;-78
2022/06/01 03:13:15;;;;;;;5.20;2.17;;;11.10;99.90;;;;;;5071486;28;20096;-78
2022/06/01 03:15:41;;;;;;;5.50;2.30;;;11.10;99.90;;;;;;5071786;28;20032;-78
2022/06/01 03:18:06;;;;;;;3.40;2.50;;;11.00;99.90;;;;;;5071155;28;20060;-77
2022/06/01 03:20:34;;;;;;;3.58;2.40;;;11.00;99.90;;;;;;5071346;28;20036;-77
2022/06/01 03:23:00;;;;;;;4.60;2.35;;;11.00;99.90;;;;;;5071412;28;20055;-78
2022/06/01 03:25:26;;;;;;;3.65;2.42;;;10.90;99.90;;;;;;5071350;28;20036;-78
2022/06/01 03:27:54;;;;;;;5.53;2.58;;;10.90;99.90;;;;;;5052754;28;20028;-78
2022/06/01 03:30:21;;;;;;;4.97;2.65;;;10.90;99.90;;;;;;5071527;28;20361;-78
2022/06/01 03:32:47;;;;;;;4.20;2.88;;;10.90;99.90;;;;;;5071357;28;20459;-78
2022/06/01 03:35:16;;;;;;;4.90;2.90;;;10.90;99.90;;;;;;5071297;28;20024;-77
2022/06/01 03:37:41;;;;;;;4.45;2.80;;;10.90;99.90;;;;;;5071118;28;20028;-77
2022/06/01 03:40:08;;;;;;;4.90;3.15;;;10.90;99.90;;;;;;5070905;28;20392;-77
2022/06/01 03:42:34;;;;;;;3.72;2.70;;;10.90;99.90;;;;;;5052778;28;20060;-78
2022/06/01 03:47:45;;;;;;;3.90;3.45;;;10.80;99.90;;;;;;5071068;28;20059;-77
2022/06/01 03:50:12;;;;;;;5.13;3.67;;;10.80;99.90;;;;;;5070629;28;20126;-77
2022/06/01 03:52:39;;;;;;;5.22;3.60;;;10.80;99.90;;;;;;5070869;28;20028;-77
2022/06/01 03:55:08;;;;;;;4.55;3.83;;;10.80;99.90;;;;;;5070705;28;20384;-77
2022/06/01 03:57:34;;;;;;;6.13;4.40;;;10.70;99.90;;;;;;5062311;28;20117;-77
2022/06/01 04:00:00;;;;;;;7.18;4.25;;;10.70;99.90;;;;;;5070745;28;20567;-77
2022/06/01 04:02:26;;;;;;;4.68;4.05;;;10.70;99.90;;;;;;5070583;28;20119;-77
2022/06/01 04:04:52;;;;;;;7.25;4.25;;;10.70;99.90;;;;;;5070482;28;20036;-77
2022/06/01 04:07:18;;;;;;;6.47;4.93;;;10.70;99.90;;;;;;5070726;28;20028;-77
2022/06/01 04:09:45;;;;;;;9.50;5.35;;;10.70;99.90;;;;;;5070215;28;20025;-77
2022/06/01 04:12:10;;;;;;;10.15;5.43;;;10.70;99.90;;;;;;5069744;28;20653;-77
2022/06/01 04:14:36;;;;;;;6.80;5.38;;;10.70;99.90;;;;;;5070573;28;20021;-77
2022/06/01 04:17:02;;;;;;;7.03;5.70;;;10.70;99.90;;;;;;5070151;28;20025;-78
2022/06/01 04:19:27;;;;;;;7.82;6.25;;;10.70;99.90;;;;;;5065065;28;20127;-77
2022/06/01 04:21:54;;;;;;;10.15;6.82;;;10.70;99.90;;;;;;5070914;28;20456;-78
2022/06/01 04:24:24;;;;;;;9.70;7.07;;;10.70;99.90;;;;;;5070403;28;20409;-77
2022/06/01 04:26:49;;;;;;;9.05;7.13;;;10.70;99.90;;;;;;5070564;28;20568;-77
2022/06/01 04:29:15;;;;;;;12.98;7.95;;;10.70;99.90;;;;;;5069713;28;20029;-77
2022/06/01 04:31:42;;;;;;;12.48;8.40;;;10.70;99.90;;;;;;5052137;28;20467;-77
2022/06/01 04:34:07;;;;;;;12.77;8.15;;;10.70;99.90;;;;;;5068110;28;20484;-77
2022/06/01 04:36:33;;;;;;;13.38;8.88;;;10.80;99.90;;;;;;5063149;28;20029;-77
2022/06/01 04:38:58;;;;;;;13.02;8.80;;;10.80;99.90;;;;;;5044462;28;20036;-77
2022/06/01 04:41:24;;;;;;;13.23;10.15;;;10.80;99.90;;;;;;5064141;28;20060;-77
2022/06/01 04:43:50;;;;;;;16.63;10.43;;;10.80;99.90;;;;;;5058766;28;20497;-77
2022/06/01 04:46:16;;;;;;;14.82;10.70;;;10.90;99.90;;;;;;5057908;28;20497;-77
2022/06/01 04:48:41;;;;;;;18.55;11.40;;;10.90;99.90;;;;;;5049333;28;20025;-77
2022/06/01 04:51:07;;;;;;;19.50;12.43;;;10.90;99.90;;;;;;5056606;28;20040;-79
2022/06/01 04:53:32;;;;;;;19.23;13.23;;;11.00;99.90;;;;;;5048775;28;20104;-77
2022/06/01 04:55:58;;;;;;;17.73;14.00;;;11.00;99.90;;;;;;5061680;28;20024;-76
2022/06/01 04:58:24;;;;;;;22.13;14.30;;;11.00;99.90;;;;;;5058825;28;20044;-77
2022/06/01 05:00:49;;;;;;;19.17;15.02;;;11.00;99.90;;;;;;5059215;28;20107;-76
2022/06/01 05:03:15;;;;;;;22.20;15.13;;;11.00;99.90;;;;;;5072925;28;20029;-77
2022/06/01 05:05:41;;;;;;;19.95;14.77;;;11.10;99.90;;;;;;5074468;28;20496;-76
2022/06/01 05:08:08;;;;;;;18.98;14.45;;;11.10;99.90;;;;;;5074394;28;20105;-76
2022/06/01 05:10:35;;;;;;;22.88;14.63;;;11.10;99.90;;;;;;5075498;28;20434;-77
2022/06/01 05:13:01;;;;;;;24.42;15.55;;;11.10;99.90;;;;;;5073795;28;20039;-76
2022/06/01 05:15:27;;;;;;;22.38;15.27;;;11.20;99.90;;;;;;5070585;28;20028;-76
2022/06/01 05:17:53;;;;;;;21.42;15.20;;;11.20;99.90;;;;;;5073378;28;20086;-76
2022/06/01 05:20:18;;;;;;;21.45;15.48;;;11.30;99.90;;;;;;5073757;28;20476;-77
2022/06/01 05:22:44;;;;;;;22.67;14.95;;;11.30;99.90;;;;;;5068072;28;20029;-77
2022/06/01 05:25:10;;;;;;;25.75;16.23;;;11.30;99.90;;;;;;5054486;28;20025;-77
2022/06/01 05:27:37;;;;;;;19.38;14.48;;;11.40;99.90;;;;;;5071994;28;20041;-77
2022/06/01 05:30:04;;;;;;;18.45;14.02;;;11.40;99.90;;;;;;5054304;28;20078;-78
2022/06/01 05:32:30;;;;;;;26.85;14.85;;;11.50;99.90;;;;;;5064448;28;20112;-76
2022/06/01 05:34:55;;;;;;;20.45;14.45;;;11.50;99.90;;;;;;5074729;28;20120;-77
2022/06/01 05:37:21;;;;;;;20.25;14.70;;;11.50;99.90;;;;;;5073284;28;20028;-77
2022/06/01 05:39:47;;;;;;;22.70;14.88;;;11.60;99.90;;;;;;5049003;28;20082;-77
2022/06/01 05:42:13;;;;;;;21.27;13.05;;;11.60;99.90;;;;;;5068776;28;20097;-77
2022/06/01 05:44:38;;;;;;;21.08;13.80;;;11.70;99.90;;;;;;5056305;28;20036;-77
2022/06/01 05:47:04;;;;;;;23.30;14.65;;;11.70;99.90;;;;;;5062107;28;20054;-76
2022/06/01 05:49:30;;;;;;;21.88;14.65;;;11.80;99.90;;;;;;5059615;28;20025;-76
2022/06/01 05:51:56;;;;;;;18.63;14.07;;;11.80;99.90;;;;;;5064710;28;20025;-77
2022/06/01 05:54:22;;;;;;;23.25;14.13;;;11.80;99.90;;;;;;5065759;28;20037;-77
2022/06/01 05:56:48;;;;;;;20.95;13.75;;;11.90;99.90;;;;;;5069195;28;20031;-77
2022/06/01 05:59:14;;;;;;;21.02;13.50;;;11.90;99.90;;;;;;5071774;28;20027;-77
2022/06/01 06:01:40;;;;;;;18.23;13.38;;;12.00;99.90;;;;;;5068261;28;20040;-77
2022/06/01 06:04:06;;;;;;;19.98;13.10;;;12.10;99.90;;;;;;5070952;28;20029;-78
2022/06/01 06:06:32;;;;;;;18.77;13.15;;;12.20;99.90;;;;;;5071216;28;20387;-77
2022/06/01 06:09:02;;;;;;;16.90;10.63;;;12.20;99.90;;;;;;5070341;28;20075;-77
2022/06/01 06:11:30;;;;;;;12.60;8.02;;;12.30;99.90;;;;;;5054455;28;20028;-77
2022/06/01 06:13:58;;;;;;;9.30;5.72;;;12.40;99.90;;;;;;5070775;28;20073;-77
2022/06/01 06:16:24;;;;;;;9.90;5.40;;;12.40;99.90;;;;;;5071841;28;20017;-77
2022/06/01 06:18:51;;;;;;;8.05;4.57;;;12.50;99.90;;;;;;5071366;28;20527;-77
2022/06/01 06:21:17;;;;;;;6.22;3.85;;;12.50;99.90;;;;;;5072591;28;20037;-77
2022/06/01 06:23:43;;;;;;;6.40;3.78;;;12.50;99.90;;;;;;5072716;28;20028;-77
2022/06/01 06:26:09;;;;;;;5.38;3.60;;;12.50;99.90;;;;;;5071801;28;21307;-77
2022/06/01 06:28:34;;;;;;;8.15;4.00;;;12.60;99.90;;;;;;5072410;28;20025;-77
2022/06/01 06:31:00;;;;;;;4.80;2.92;;;12.60;99.90;;;;;;5072574;28;20480;-77
2022/06/01 06:33:26;;;;;;;4.47;2.80;;;12.70;99.90;;;;;;5072510;28;20485;-77
2022/06/01 06:36:01;;;;;;;3.55;2.55;;;12.80;99.90;;;;;;5072295;28;20017;-77
2022/06/01 06:38:28;;;;;;;6.03;2.83;;;12.80;99.90;;;;;;5066063;28;20393;-77
2022/06/01 06:40:55;;;;;;;3.83;2.60;;;12.80;99.90;;;;;;5041359;28;20037;-77
2022/06/01 06:43:23;;;;;;;4.70;2.72;;;12.90;99.90;;;;;;5062840;28;20116;-77
2022/06/01 06:45:55;;;;;;;6.50;3.20;;;13.00;99.90;;;;;;5071958;28;20025;-77
2022/06/01 06:48:21;;;;;;;4.72;2.50;;;13.10;99.90;;;;;;5071078;28;20056;-77
2022/06/01 06:50:47;;;;;;;4.57;2.28;;;13.10;99.90;;;;;;5053655;28;20503;-77
2022/06/01 06:53:13;;;;;;;4.47;2.25;;;13.20;99.90;;;;;;5072152;28;20090;-77
2022/06/01 06:55:39;;;;;;;4.72;2.10;;;13.20;99.90;;;;;;5050645;28;20025;-76
2022/06/01 06:58:09;;;;;;;7.10;2.40;;;13.30;99.90;;;;;;5064234;28;20028;-76
2022/06/01 07:00:35;;;;;;;3.92;2.25;;;13.30;99.90;;;;;;5071387;28;20025;-77
2022/06/01 07:03:01;;;;;;;3.75;2.15;;;13.40;99.90;;;;;;5071654;28;20024;-77
2022/06/01 07:08:10;;;;;;;3.33;2.15;;;13.50;99.90;;;;;;5071186;28;20561;-77
2022/06/01 07:10:36;;;;;;;3.85;2.00;;;13.60;99.90;;;;;;5070024;28;20051;-77
2022/06/01 07:13:02;;;;;;;3.72;2.05;;;13.80;99.90;;;;;;5059707;28;20381;-75
2022/06/01 07:15:27;;;;;;;2.65;2.03;;;13.90;99.90;;;;;;5064096;28;20048;-76
2022/06/01 07:17:53;;;;;;;3.03;1.80;;;13.90;99.90;;;;;;5070745;28;20053;-76
2022/06/01 07:20:19;;;;;;;3.65;1.90;;;14.00;99.90;;;;;;5071443;28;20035;-76
2022/06/01 07:22:44;;;;;;;2.28;1.90;;;14.00;99.90;;;;;;5070656;28;20048;-76
2022/06/01 07:25:10;;;;;;;2.45;1.80;;;14.10;99.90;;;;;;5071409;28;20536;-77
2022/06/01 07:27:36;;;;;;;2.45;2.10;;;14.10;99.90;;;;;;5071292;28;20025;-77
2022/06/01 07:30:04;;;;;;;4.30;1.80;;;14.20;99.90;;;;;;5064969;28;20350;-77
2022/06/01 07:32:30;;;;;;;3.22;1.80;;;14.30;99.90;;;;;;5070707;28;20204;-75
2022/06/01 07:34:56;;;;;;;3.63;1.70;;;14.50;99.90;;;;;;5071109;28;20048;-75
2022/06/01 07:43:06;;;;;;;3.13;2.00;;;14.80;99.90;;;;;;5067725;28;20035;-75
2022/06/01 07:45:37;;;;;;;3.92;2.10;;;14.90;99.90;;;;;;5071537;28;20388;-75
2022/06/01 07:48:04;;;;;;;2.47;1.52;;;14.90;99.90;;;;;;5070785;28;20532;-76
2022/06/01 07:50:29;;;;;;;1.77;1.60;;;14.90;99.90;;;;;;5070738;28;20029;-76
2022/06/01 07:52:55;;;;;;;2.78;1.77;;;15.00;99.90;;;;;;5069194;28;20145;-76
2022/06/01 07:55:21;;;;;;;3.75;1.83;;;15.00;99.90;;;;;;5070538;28;20024;-76
2022/06/01 07:57:46;;;;;;;4.45;1.73;;;15.10;99.90;;;;;;5070507;28;20420;-74
2022/06/01 08:00:14;;;;;;;2.78;1.52;;;15.20;99.90;;;;;;5070582;28;20020;-73
2022/06/01 08:02:40;;;;;;;3.40;1.70;;;15.40;99.90;;;;;;5069859;28;20182;-74
2022/06/01 08:05:07;;;;;;;4.57;1.60;;;15.50;99.90;;;;;;5070555;28;20369;-74
2022/06/01 08:07:35;;;;;;;3.40;1.60;;;15.50;99.90;;;;;;5070729;28;20086;-74
2022/06/01 08:10:03;;;;;;;4.65;1.75;;;15.60;99.90;;;;;;5070433;28;20100;-74
2022/06/01 08:15:13;;;;;;;5.55;1.67;;;15.60;99.90;;;;;;5062954;28;20036;-75
2022/06/01 08:17:41;;;;;;;2.33;1.50;;;15.80;99.90;;;;;;5069739;28;20024;-74
2022/06/01 08:20:08;;;;;;;5.55;1.58;;;15.80;99.90;;;;;;5069730;28;20020;-74
2022/06/01 08:22:33;;;;;;;3.88;1.73;;;15.90;99.90;;;;;;5070745;28;20028;-75
2022/06/01 08:24:59;;;;;;;4.78;1.90;;;16.10;99.90;;;;;;5052139;28;20365;-74
2022/06/01 08:27:24;;;;;;;2.92;1.63;;;16.20;99.90;;;;;;5070044;28;20099;-74
2022/06/01 08:29:50;;;;;;;2.67;1.77;;;16.30;99.90;;;;;;5070165;28;20017;-73
2022/06/01 08:32:16;;;;;;;3.08;1.58;;;16.30;99.90;;;;;;5070260;28;20034;-74
2022/06/01 08:34:41;;;;;;;1.65;1.45;;;16.50;99.90;;;;;;5068772;28;20431;-74
2022/06/01 08:37:07;;;;;;;2.15;1.70;;;16.60;99.90;;;;;;5069367;28;20032;-74
2022/06/01 08:39:32;;;;;;;2.40;1.70;;;16.70;99.90;;;;;;5069386;28;20032;-75
2022/06/01 08:42:00;;;;;;;4.10;1.63;;;16.70;99.90;;;;;;5051474;28;20029;-74
2022/06/01 08:44:35;;;;;;;3.05;1.88;;;16.80;99.90;;;;;;5066070;28;20028;-74
2022/06/01 08:47:25;;;;;;;3.93;2.20;;;16.70;99.90;;;;;;5069996;28;20456;-73
2022/06/01 08:49:52;;;;;;;2.15;1.80;;;16.70;99.90;;;;;;5068604;28;20078;-75
2022/06/01 08:52:21;;;;;;;5.55;2.08;;;16.70;99.90;;;;;;5069911;28;20025;-75
2022/06/01 08:54:46;;;;;;;2.00;1.80;;;16.80;99.90;;;;;;5069711;28;20029;-75
2022/06/01 08:57:28;;;;;;;2.42;1.48;;;16.80;99.90;;;;;;5070046;28;20023;-75
2022/06/01 09:00:00;;;;;;;2.65;1.52;;;16.90;99.90;;;;;;5070051;28;20104;-74
2022/06/01 09:02:35;;;;;;;2.70;1.48;;;17.00;99.90;;;;;;5067672;28;20068;-75
2022/06/01 09:05:32;;;;;;;2.20;1.58;;;17.00;99.90;;;;;;5056582;28;20476;-74
2022/06/01 09:08:15;;;;;;;2.22;1.20;;;16.90;99.90;;;;;;5066095;28;20085;-75
2022/06/01 09:10:46;;;;;;;3.00;1.60;;;17.00;99.90;;;;;;5062730;28;20028;-75
2022/06/01 09:13:23;;;;;;;3.92;1.40;;;17.00;99.90;;;;;;5063331;28;20028;-74
2022/06/01 09:16:05;;;;;;;1.92;1.30;;;17.00;99.90;;;;;;5069716;28;20143;-74
2022/06/01 09:18:46;;;;;;;1.88;1.40;;;17.00;99.90;;;;;;5061960;28;20040;-74
2022/06/01 09:24:10;;;;;;;3.50;1.58;;;16.80;99.90;;;;;;5069708;28;20089;-76
2022/06/01 09:26:55;;;;;;;1.83;1.20;;;16.70;99.90;;;;;;5066666;28;20534;-75
2022/06/01 09:29:24;;;;;;;2.35;1.40;;;16.50;99.90;;;;;;5066521;28;20029;-74
2022/06/01 09:31:56;;;;;;;3.50;2.00;;;16.30;99.90;;;;;;5069588;28;20031;-74
2022/06/01 09:34:30;;;;;;;2.28;1.70;;;16.30;99.90;;;;;;5068983;28;20059;-75
2022/06/01 09:37:04;;;;;;;4.90;2.33;;;16.50;99.90;;;;;;5070113;28;20032;-74
2022/06/01 09:39:30;;;;;;;4.68;2.70;;;16.60;99.90;;;;;;5068833;28;20024;-75
2022/06/01 09:42:32;;;;;;;3.15;2.30;;;16.70;99.90;;;;;;5068784;28;20021;-74
2022/06/01 09:44:59;;;;;;;2.17;1.88;;;16.80;99.90;;;;;;5068649;28;20408;-74
2022/06/01 09:47:40;;;;;;;4.65;2.03;;;16.80;99.90;;;;;;5071192;28;20016;-74
2022/06/01 09:50:24;;;;;;;2.10;2.00;;;16.80;99.90;;;;;;5064677;28;20024;-75
2022/06/01 09:53:14;;;;;;;3.30;1.88;;;17.00;99.90;;;;;;5062044;28;20033;-77
2022/06/01 09:55:54;;;;;;;3.33;2.20;;;17.10;99.90;;;;;;5032128;28;20021;-75
2022/06/01 10:06:56;;;;;;;2.63;1.80;;;17.30;99.90;;;;;;5066872;28;20400;-75
2022/06/01 10:09:27;;;;;;;4.07;2.10;;;17.40;99.90;;;;;;5060676;28;20385;-75
2022/06/01 10:11:54;;;;;;;3.58;1.88;;;17.50;99.90;;;;;;5072155;28;20624;-76
2022/06/01 10:14:31;;;;;;;4.15;2.40;;;17.60;99.90;;;;;;5072817;28;20016;-77
2022/06/01 10:17:15;;;;;;;4.38;2.10;;;17.80;99.90;;;;;;5066255;28;20024;-77
2022/06/01 10:19:45;;;;;;;5.88;2.50;;;17.60;99.90;;;;;;5064607;28;20048;-77
2022/06/01 10:22:22;;;;;;;4.05;2.17;;;17.60;99.90;;;;;;5049039;28;20736;-77
2022/06/01 10:25:17;;;;;;;3.25;2.03;;;17.60;99.90;;;;;;5064663;28;20451;-77
2022/06/01 10:27:55;;;;;;;3.38;2.13;;;17.70;99.90;;;;;;5065076;28;20025;-78
2022/06/01 10:30:37;;;;;;;3.67;1.73;;;17.80;99.90;;;;;;5043191;28;20463;-79
2022/06/01 10:33:12;;;;;;;1.90;1.60;;;17.80;99.90;;;;;;5044319;28;20020;-77
2022/06/01 10:35:46;;;;;;;4.47;2.15;;;17.70;99.50;;;;;;5057904;28;20045;-78
2022/06/01 10:38:35;;;;;;;5.07;2.20;;;17.70;99.90;;;;;;5067983;28;20092;-77
2022/06/01 10:41:07;;;;;;;6.40;2.50;;;17.60;99.90;;;;;;5054330;28;20036;-77
2022/06/01 10:43:54;;;;;;;3.33;2.20;;;17.50;99.90;;;;;;5056200;28;20595;-79
2022/06/01 10:46:53;;;;;;;2.72;2.25;;;17.40;99.90;;;;;;5066049;28;20483;-80
2022/06/01 10:49:33;;;;;;;3.70;2.70;;;17.40;99.90;;;;;;5067496;28;20028;-74
2022/06/01 10:52:10;;;;;;;2.75;2.22;;;17.30;99.90;;;;;;5054583;28;20024;-74
2022/06/01 10:54:52;;;;;;;4.07;2.10;;;17.20;99.90;;;;;;5059707;28;20096;-73
2022/06/01 10:57:21;;;;;;;6.60;2.70;;;17.30;99.90;;;;;;5058246;28;20028;-73
2022/06/01 10:59:47;;;;;;;6.20;2.78;;;17.50;99.90;;;;;;5058356;28;20074;-74
2022/06/01 11:02:23;;;;;;;2.67;2.25;;;17.60;99.90;;;;;;5064320;28;20086;-74
2022/06/01 11:05:13;;;;;;;2.60;1.92;;;17.70;99.90;;;;;;5069632;28;20040;-74
2022/06/01 11:08:16;;;;;;;2.58;2.00;;;17.70;99.90;;;;;;5065684;28;20028;-74
2022/06/01 11:11:15;;;;;;;3.58;1.95;;;17.60;99.90;;;;;;5066387;28;20079;-75
2022/06/01 11:14:20;;;;;;;1.83;1.67;;;17.50;99.50;;;;;;5061211;28;20047;-73
2022/06/01 11:17:11;;;;;;;4.68;2.40;;;17.50;99.90;;;;;;5065316;28;20023;-73
2022/06/01 11:20:06;;;;;;;5.18;2.15;;;17.50;99.90;;;;;;5065531;28;20736;-73
2022/06/01 11:22:56;;;;;;;4.37;2.37;;;17.60;99.90;;;;;;5053901;28;20067;-74
2022/06/01 11:25:29;;;;;;;5.20;3.30;;;17.70;99.90;;;;;;5071185;28;20052;-73
2022/06/01 11:28:43;;;;;;;4.40;3.15;;;17.70;99.90;;;;;;5064800;28;20093;-73
2022/06/01 11:31:19;;;;;;;5.43;3.60;;;17.60;99.90;;;;;;4983297;28;20059;-75
2022/06/01 11:33:57;;;;;;;7.63;4.35;;;17.70;99.90;;;;;;4983730;28;20678;-73
2022/06/01 11:36:39;;;;;;;8.75;5.20;;;17.80;99.90;;;;;;4980119;28;20128;-73
2022/06/01 11:39:19;;;;;;;8.43;5.00;;;18.10;99.90;;;;;;4983753;28;20040;-73
2022/06/01 11:41:56;;;;;;;8.43;5.38;;;18.30;99.90;;;;;;4984668;28;20034;-73
2022/06/01 11:44:39;;;;;;;11.68;5.70;;;18.30;99.50;;;;;;4976939;28;20038;-74
2022/06/01 11:47:51;;;;;;;8.07;6.07;;;18.10;98.70;;;;;;4975850;28;20069;-76
2022/06/01 11:50:44;;;;;;;9.20;6.10;;;17.80;99.00;;;;;;4978763;28;20066;-74
2022/06/01 11:53:44;;;;;;;8.95;6.57;;;17.60;99.60;;;;;;4954232;28;20035;-73
2022/06/01 11:56:33;;;;;;;8.65;6.22;;;17.40;99.90;;;;;;4974835;28;20521;-73
2022/06/01 11:59:28;;;;;;;9.07;6.22;;;17.30;99.90;;;;;;4980269;28;20070;-73
2022/06/01 12:02:42;;;;;;;8.32;5.75;;;17.20;99.90;;;;;;4974038;28;20061;-74
2022/06/01 12:05:13;;;;;;;7.68;5.55;;;17.40;99.90;;;;;;4979741;28;20038;-73
2022/06/01 12:07:46;;;;;;;9.40;6.80;;;17.70;99.90;;;;;;5023613;28;20032;-73
2022/06/01 12:10:51;;;;;;;7.30;6.32;;;17.80;99.90;;;;;;5062146;28;20102;-73
2022/06/01 12:13:52;;;;;;;7.30;5.40;;;17.60;99.90;;;;;;5062520;28;20097;-74
2022/06/01 12:16:25;;;;;;;5.57;4.75;;;17.30;99.90;;;;;;5045773;28;20045;-74
2022/06/01 12:19:06;;;;;;;6.63;4.90;;;17.30;99.90;;;;;;5055002;28;20610;-74
2022/06/01 12:21:44;;;;;;;10.88;4.47;;;17.40;99.90;;;;;;5028425;28;20051;-76
2022/06/01 12:30:13;;;;;;;5.65;2.90;;;17.70;99.90;;;;;;4986595;28;20386;-74
2022/06/01 12:33:00;;;;;;;4.18;2.88;;;17.90;99.10;;;;;;4987026;28;20446;-74
2022/06/01 12:35:32;;;;;;;6.82;3.92;;;18.20;97.60;;;;;;4982128;28;20466;-74
2022/06/01 12:38:06;;;;;;;4.93;3.85;;;18.30;96.50;;;;;;4984747;28;20039;-74
2022/06/01 12:40:33;;;;;;;5.30;3.00;;;18.20;96.60;;;;;;4981380;28;20537;-74
2022/06/01 12:43:02;;;;;;;7.45;4.25;;;18.30;94.60;;;;;;4986095;28;20030;-73
2022/06/01 12:45:40;;;;;;;6.13;5.00;;;18.30;95.10;;;;;;4983097;28;20321;-74
2022/06/01 12:48:09;;;;;;;5.85;3.78;;;18.40;95.80;;;;;;4985718;28;20057;-73
2022/06/01 12:50:47;;;;;;;4.47;3.60;;;18.70;95.40;;;;;;4977165;28;20035;-74
2022/06/01 12:53:23;;;;;;;5.13;4.03;;;18.90;94.00;;;;;;4978165;28;20038;-74
2022/06/01 12:56:07;;;;;;;5.38;3.42;;;19.00;94.20;;;;;;4983027;28;20369;-74
2022/06/01 12:58:34;;;;;;;6.00;3.90;;;19.20;91.90;;;;;;5034488;28;20067;-73
2022/06/01 13:01:00;;;;;;;5.10;3.60;;;18.90;91.30;;;;;;5050435;28;20143;-74
2022/06/01 13:03:32;;;;;;;4.68;3.50;;;18.70;91.40;;;;;;5052178;28;20539;-73
2022/06/01 13:06:01;;;;;;;5.75;3.60;;;18.50;91.90;;;;;;5049799;28;20104;-73
2022/06/01 13:08:33;;;;;;;4.55;3.78;;;18.40;92.90;;;;;;5033222;28;20033;-73
2022/06/01 13:11:29;;;;;;;4.70;3.88;;;18.30;92.40;;;;;;5047989;28;20159;-73
2022/06/01 13:14:05;;;;;;;5.75;4.25;;;18.20;93.60;;;;;;5052812;28;20150;-73
2022/06/01 13:16:45;;;;;;;7.20;3.50;;;18.30;93.30;;;;;;5055904;28;20490;-73
2022/06/01 13:19:16;;;;;;;5.45;3.80;;;18.30;93.80;;;;;;5054063;28;20405;-75
2022/06/01 13:21:45;;;;;;;7.05;3.67;;;18.30;93.30;;;;;;5055864;28;20048;-73
2022/06/01 13:24:11;;;;;;;5.45;3.42;;;18.20;94.20;;;;;;5053907;28;20122;-73
2022/06/01 13:26:41;;;;;;;4.43;3.50;;;18.20;94.50;;;;;;5053225;28;20066;-74
2022/06/01 13:29:27;;;;;;;5.22;3.90;;;18.00;94.70;;;;;;5054112;28;20385;-74
2022/06/01 13:31:57;;;;;;;5.88;3.33;;;17.80;95.40;;;;;;5051103;28;20021;-74
2022/06/01 13:34:46;;;;;;;6.75;3.70;;;17.70;96.50;;;;;;5034636;28;20216;-73
2022/06/01 13:37:19;;;;;;;6.97;3.80;;;17.80;96.20;;;;;;5051205;28;20028;-73
2022/06/01 13:40:08;;;;;;;5.57;3.58;;;17.70;96.40;;;;;;5055404;28;20017;-74
2022/06/01 13:43:02;;;;;;;6.05;2.97;;;17.70;96.80;;;;;;5055510;28;20539;-74
2022/06/01 13:45:38;;;;;;;7.47;3.22;;;17.60;97.70;;;;;;5042272;28;20052;-74
2022/06/01 13:48:07;;;;;;;6.47;2.90;;;17.50;98.20;;;;;;5059708;28;20531;-74